Van Cleve, Kentucky
Current Conditions -  °F | °C
As of 4:55 AM on Friday 19 Dec 2014 (Local Time) from KCEY Reporting Station
Overcast Overcast  
Wind Chill: 25°   Ceiling: 4600
Heat Index: 32°   Visibility: 10mi
Dew Point: 28°   Wind: 8mph
Humidity: 87%   Direction: 40°NE
Pressure: 30.26"   Gusts: NA
Location:  36.618°N, 88.2562°W
Report Text: KCEY 191055Z AUTO 04007KT 10SM OVC046 00/M02 A3026 RMK AO1
Loading
Personal Weather Stations






























Interactive Weather Map New forecast layout! Learn more

10-Day Weather Forecast

Advertisements
Track Severe Weather on mobile